sensor_id;sensor_type;location;lat;lon;timestamp;temperature;humidity
9984;DHT22;16737;50.932;6.780;2023-02-01T00:00:36;9.90;98.80
9984;DHT22;16737;50.932;6.780;2023-02-01T00:03:03;9.90;98.70
9984;DHT22;16737;50.932;6.780;2023-02-01T00:05:31;9.90;98.70
9984;DHT22;16737;50.932;6.780;2023-02-01T00:07:58;9.90;98.70
9984;DHT22;16737;50.932;6.780;2023-02-01T00:10:26;9.90;98.70
9984;DHT22;16737;50.932;6.780;2023-02-01T00:12:55;9.90;98.70
9984;DHT22;16737;50.932;6.780;2023-02-01T00:15:22;9.80;98.60
9984;DHT22;16737;50.932;6.780;2023-02-01T00:17:53;9.80;98.50
9984;DHT22;16737;50.932;6.780;2023-02-01T00:20:21;9.80;98.60
9984;DHT22;16737;50.932;6.780;2023-02-01T00:22:48;9.80;98.50
9984;DHT22;16737;50.932;6.780;2023-02-01T00:25:16;9.70;98.50
9984;DHT22;16737;50.932;6.780;2023-02-01T00:27:49;9.70;98.40
9984;DHT22;16737;50.932;6.780;2023-02-01T00:30:17;9.60;98.40
9984;DHT22;16737;50.932;6.780;2023-02-01T00:32:44;9.60;98.40
9984;DHT22;16737;50.932;6.780;2023-02-01T00:35:11;9.60;98.40
9984;DHT22;16737;50.932;6.780;2023-02-01T00:37:38;9.60;98.30
9984;DHT22;16737;50.932;6.780;2023-02-01T00:40:06;9.50;98.60
9984;DHT22;16737;50.932;6.780;2023-02-01T00:42:34;9.50;98.20
9984;DHT22;16737;50.932;6.780;2023-02-01T00:45:04;9.50;98.30
9984;DHT22;16737;50.932;6.780;2023-02-01T00:47:31;9.40;98.20
9984;DHT22;16737;50.932;6.780;2023-02-01T00:49:58;9.40;98.20
9984;DHT22;16737;50.932;6.780;2023-02-01T00:52:25;9.40;98.20
9984;DHT22;16737;50.932;6.780;2023-02-01T00:54:52;9.40;98.20
9984;DHT22;16737;50.932;6.780;2023-02-01T00:57:19;9.40;98.10
9984;DHT22;16737;50.932;6.780;2023-02-01T00:59:46;9.30;98.10
9984;DHT22;16737;50.932;6.780;2023-02-01T01:02:15;9.30;98.10
9984;DHT22;16737;50.932;6.780;2023-02-01T01:04:42;9.30;98.00
9984;DHT22;16737;50.932;6.780;2023-02-01T01:07:09;9.30;98.00
9984;DHT22;16737;50.932;6.780;2023-02-01T01:09:36;9.30;98.00
9984;DHT22;16737;50.932;6.780;2023-02-01T01:12:04;9.30;98.00
9984;DHT22;16737;50.932;6.780;2023-02-01T01:14:32;9.30;98.00
9984;DHT22;16737;50.932;6.780;2023-02-01T01:16:59;9.30;97.90
9984;DHT22;16737;50.932;6.780;2023-02-01T01:19:28;9.30;97.90
9984;DHT22;16737;50.932;6.780;2023-02-01T01:21:54;9.30;97.90
9984;DHT22;16737;50.932;6.780;2023-02-01T01:24:21;9.30;97.90
9984;DHT22;16737;50.932;6.780;2023-02-01T01:26:48;9.30;97.90
9984;DHT22;16737;50.932;6.780;2023-02-01T01:29:15;9.20;97.80
9984;DHT22;16737;50.932;6.780;2023-02-01T01:31:43;9.20;97.80
9984;DHT22;16737;50.932;6.780;2023-02-01T01:34:11;9.20;97.80
9984;DHT22;16737;50.932;6.780;2023-02-01T01:36:39;9.20;97.80
9984;DHT22;16737;50.932;6.780;2023-02-01T01:39:06;9.20;97.80
9984;DHT22;16737;50.932;6.780;2023-02-01T01:41:33;9.20;97.70
9984;DHT22;16737;50.932;6.780;2023-02-01T01:44:01;9.20;97.70
9984;DHT22;16737;50.932;6.780;2023-02-01T01:46:32;9.20;97.70
9984;DHT22;16737;50.932;6.780;2023-02-01T01:49:04;9.20;97.70
9984;DHT22;16737;50.932;6.780;2023-02-01T01:51:40;9.20;97.60
9984;DHT22;16737;50.932;6.780;2023-02-01T01:54:14;9.20;97.60
9984;DHT22;16737;50.932;6.780;2023-02-01T01:56:48;9.10;97.50
9984;DHT22;16737;50.932;6.780;2023-02-01T01:59:18;9.20;97.90
9984;DHT22;16737;50.932;6.780;2023-02-01T02:01:47;9.10;97.50
9984;DHT22;16737;50.932;6.780;2023-02-01T02:04:14;9.10;97.60
9984;DHT22;16737;50.932;6.780;2023-02-01T02:06:47;9.10;97.60
9984;DHT22;16737;50.932;6.780;2023-02-01T02:09:18;9.10;97.60
9984;DHT22;16737;50.932;6.780;2023-02-01T02:11:47;9.10;97.60
9984;DHT22;16737;50.932;6.780;2023-02-01T02:14:17;9.10;97.90
9984;DHT22;16737;50.932;6.780;2023-02-01T02:16:59;9.10;97.60
9984;DHT22;16737;50.932;6.780;2023-02-01T02:20:10;9.10;97.60
9984;DHT22;16737;50.932;6.780;2023-02-01T02:26:23;9.10;97.70
9984;DHT22;16737;50.932;6.780;2023-02-01T02:35:20;9.00;97.70
9984;DHT22;16737;50.932;6.780;2023-02-01T02:38:05;9.10;97.70
9984;DHT22;16737;50.932;6.780;2023-02-01T02:40:45;9.00;97.70
9984;DHT22;16737;50.932;6.780;2023-02-01T02:43:21;9.00;97.80
9984;DHT22;16737;50.932;6.780;2023-02-01T02:46:12;9.10;97.80
9984;DHT22;16737;50.932;6.780;2023-02-01T02:49:17;9.10;97.80
9984;DHT22;16737;50.932;6.780;2023-02-01T02:51:52;9.00;98.10
9984;DHT22;16737;50.932;6.780;2023-02-01T02:54:41;9.10;97.80
9984;DHT22;16737;50.932;6.780;2023-02-01T02:57:16;9.00;97.70
9984;DHT22;16737;50.932;6.780;2023-02-01T03:00:07;9.10;97.80
9984;DHT22;16737;50.932;6.780;2023-02-01T03:02:54;9.10;97.80
9984;DHT22;16737;50.932;6.780;2023-02-01T03:05:42;9.10;97.80
9984;DHT22;16737;50.932;6.780;2023-02-01T03:08:13;9.10;97.80
9984;DHT22;16737;50.932;6.780;2023-02-01T03:10:48;9.10;97.80
9984;DHT22;16737;50.932;6.780;2023-02-01T03:13:26;9.10;97.80
9984;DHT22;16737;50.932;6.780;2023-02-01T03:16:01;9.10;97.80
9984;DHT22;16737;50.932;6.780;2023-02-01T03:18:39;9.10;97.80
9984;DHT22;16737;50.932;6.780;2023-02-01T03:21:17;9.20;97.80
9984;DHT22;16737;50.932;6.780;2023-02-01T03:23:49;9.20;97.80
9984;DHT22;16737;50.932;6.780;2023-02-01T03:26:20;9.10;97.80
9984;DHT22;16737;50.932;6.780;2023-02-01T03:28:54;9.20;97.80
9984;DHT22;16737;50.932;6.780;2023-02-01T03:31:28;9.20;97.80
9984;DHT22;16737;50.932;6.780;2023-02-01T03:33:55;9.20;98.10
9984;DHT22;16737;50.932;6.780;2023-02-01T03:36:27;9.20;97.80
9984;DHT22;16737;50.932;6.780;2023-02-01T03:39:03;9.20;97.80
9984;DHT22;16737;50.932;6.780;2023-02-01T03:41:36;9.20;97.80
9984;DHT22;16737;50.932;6.780;2023-02-01T03:44:15;9.20;97.80
9984;DHT22;16737;50.932;6.780;2023-02-01T03:46:49;9.20;97.70
9984;DHT22;16737;50.932;6.780;2023-02-01T03:49:22;9.20;97.70
9984;DHT22;16737;50.932;6.780;2023-02-01T03:51:55;9.20;97.70
9984;DHT22;16737;50.932;6.780;2023-02-01T03:54:27;9.20;97.60
9984;DHT22;16737;50.932;6.780;2023-02-01T03:56:56;9.20;97.60
9984;DHT22;16737;50.932;6.780;2023-02-01T03:59:27;9.20;97.60
9984;DHT22;16737;50.932;6.780;2023-02-01T04:01:55;9.20;97.60
9984;DHT22;16737;50.932;6.780;2023-02-01T04:04:22;9.20;97.60
9984;DHT22;16737;50.932;6.780;2023-02-01T04:06:50;9.20;97.50
9984;DHT22;16737;50.932;6.780;2023-02-01T04:09:18;9.20;97.50
9984;DHT22;16737;50.932;6.780;2023-02-01T04:11:46;9.20;97.50
9984;DHT22;16737;50.932;6.780;2023-02-01T04:14:13;9.10;97.50
9984;DHT22;16737;50.932;6.780;2023-02-01T04:16:40;9.20;97.50
9984;DHT22;16737;50.932;6.780;2023-02-01T04:19:09;9.10;97.50
9984;DHT22;16737;50.932;6.780;2023-02-01T04:21:36;9.20;97.50
9984;DHT22;16737;50.932;6.780;2023-02-01T04:24:04;9.20;97.50
9984;DHT22;16737;50.932;6.780;2023-02-01T04:26:31;9.10;97.50
9984;DHT22;16737;50.932;6.780;2023-02-01T04:29:00;9.20;97.50
9984;DHT22;16737;50.932;6.780;2023-02-01T04:31:27;9.20;97.50
9984;DHT22;16737;50.932;6.780;2023-02-01T04:33:55;9.10;97.40
9984;DHT22;16737;50.932;6.780;2023-02-01T04:36:23;9.10;97.40
9984;DHT22;16737;50.932;6.780;2023-02-01T04:38:50;9.10;97.40
9984;DHT22;16737;50.932;6.780;2023-02-01T04:41:18;9.20;97.50
9984;DHT22;16737;50.932;6.780;2023-02-01T04:43:46;9.10;97.40
9984;DHT22;16737;50.932;6.780;2023-02-01T04:46:14;9.10;97.40
9984;DHT22;16737;50.932;6.780;2023-02-01T04:48:42;9.10;97.30
9984;DHT22;16737;50.932;6.780;2023-02-01T04:51:11;9.10;97.30
9984;DHT22;16737;50.932;6.780;2023-02-01T04:53:38;9.10;97.30
9984;DHT22;16737;50.932;6.780;2023-02-01T04:56:06;9.10;97.20
9984;DHT22;16737;50.932;6.780;2023-02-01T04:58:33;9.10;97.20
9984;DHT22;16737;50.932;6.780;2023-02-01T05:01:02;9.10;97.20
9984;DHT22;16737;50.932;6.780;2023-02-01T05:03:32;9.00;97.20
9984;DHT22;16737;50.932;6.780;2023-02-01T05:05:59;9.00;97.10
9984;DHT22;16737;50.932;6.780;2023-02-01T05:08:26;9.00;97.10
9984;DHT22;16737;50.932;6.780;2023-02-01T05:10:54;9.00;97.10
9984;DHT22;16737;50.932;6.780;2023-02-01T05:13:21;9.00;97.10
9984;DHT22;16737;50.932;6.780;2023-02-01T05:16:17;8.90;97.40
9984;DHT22;16737;50.932;6.780;2023-02-01T05:18:45;8.90;97.10
9984;DHT22;16737;50.932;6.780;2023-02-01T05:21:12;8.90;97.10
9984;DHT22;16737;50.932;6.780;2023-02-01T05:23:39;8.80;97.00
9984;DHT22;16737;50.932;6.780;2023-02-01T05:26:20;8.80;97.00
9984;DHT22;16737;50.932;6.780;2023-02-01T05:28:48;8.80;97.00
9984;DHT22;16737;50.932;6.780;2023-02-01T05:31:15;8.80;97.00
9984;DHT22;16737;50.932;6.780;2023-02-01T05:33:43;8.80;97.00
9984;DHT22;16737;50.932;6.780;2023-02-01T05:36:11;8.80;97.00
9984;DHT22;16737;50.932;6.780;2023-02-01T05:38:38;8.70;96.90
9984;DHT22;16737;50.932;6.780;2023-02-01T05:41:05;8.70;97.00
9984;DHT22;16737;50.932;6.780;2023-02-01T05:43:32;8.70;96.90
9984;DHT22;16737;50.932;6.780;2023-02-01T05:45:59;8.60;96.90
9984;DHT22;16737;50.932;6.780;2023-02-01T05:48:27;8.60;97.20
9984;DHT22;16737;50.932;6.780;2023-02-01T05:50:54;8.60;96.90
9984;DHT22;16737;50.932;6.780;2023-02-01T05:53:22;8.60;96.90
9984;DHT22;16737;50.932;6.780;2023-02-01T05:55:49;8.60;96.90
9984;DHT22;16737;50.932;6.780;2023-02-01T05:58:16;8.60;96.90
9984;DHT22;16737;50.932;6.780;2023-02-01T06:00:43;8.50;96.90
9984;DHT22;16737;50.932;6.780;2023-02-01T06:03:10;8.50;96.90
9984;DHT22;16737;50.932;6.780;2023-02-01T06:05:37;8.50;96.90
9984;DHT22;16737;50.932;6.780;2023-02-01T06:08:04;8.50;96.90
9984;DHT22;16737;50.932;6.780;2023-02-01T06:10:34;8.50;97.20
9984;DHT22;16737;50.932;6.780;2023-02-01T06:13:01;8.50;96.90
9984;DHT22;16737;50.932;6.780;2023-02-01T06:15:29;8.50;96.90
9984;DHT22;16737;50.932;6.780;2023-02-01T06:17:56;8.50;96.90
9984;DHT22;16737;50.932;6.780;2023-02-01T06:20:24;8.50;96.90
9984;DHT22;16737;50.932;6.780;2023-02-01T06:22:51;8.50;96.90
9984;DHT22;16737;50.932;6.780;2023-02-01T06:25:18;8.40;96.80
9984;DHT22;16737;50.932;6.780;2023-02-01T06:27:48;8.40;96.80
9984;DHT22;16737;50.932;6.780;2023-02-01T06:30:16;8.40;96.80
9984;DHT22;16737;50.932;6.780;2023-02-01T06:32:44;8.40;96.80
9984;DHT22;16737;50.932;6.780;2023-02-01T06:35:10;8.40;96.80
9984;DHT22;16737;50.932;6.780;2023-02-01T06:37:41;8.40;96.80
9984;DHT22;16737;50.932;6.780;2023-02-01T06:40:09;8.30;96.80
9984;DHT22;16737;50.932;6.780;2023-02-01T06:42:37;8.30;96.80
9984;DHT22;16737;50.932;6.780;2023-02-01T06:45:06;8.30;96.80
9984;DHT22;16737;50.932;6.780;2023-02-01T06:47:34;8.30;96.90
9984;DHT22;16737;50.932;6.780;2023-02-01T06:50:01;8.30;96.90
9984;DHT22;16737;50.932;6.780;2023-02-01T06:52:28;8.30;96.90
9984;DHT22;16737;50.932;6.780;2023-02-01T06:54:55;8.30;96.90
9984;DHT22;16737;50.932;6.780;2023-02-01T06:57:22;8.30;97.00
9984;DHT22;16737;50.932;6.780;2023-02-01T06:59:50;8.30;97.00
9984;DHT22;16737;50.932;6.780;2023-02-01T07:02:19;8.30;97.00
9984;DHT22;16737;50.932;6.780;2023-02-01T07:04:46;8.30;97.00
9984;DHT22;16737;50.932;6.780;2023-02-01T07:07:13;8.30;97.00
9984;DHT22;16737;50.932;6.780;2023-02-01T07:09:41;8.30;96.90
9984;DHT22;16737;50.932;6.780;2023-02-01T07:12:08;8.40;97.00
9984;DHT22;16737;50.932;6.780;2023-02-01T07:14:35;8.30;97.00
9984;DHT22;16737;50.932;6.780;2023-02-01T07:17:02;8.40;97.00
9984;DHT22;16737;50.932;6.780;2023-02-01T07:19:31;8.40;97.00
9984;DHT22;16737;50.932;6.780;2023-02-01T07:21:57;8.40;97.00
9984;DHT22;16737;50.932;6.780;2023-02-01T07:24:24;8.40;97.00
9984;DHT22;16737;50.932;6.780;2023-02-01T07:26:51;8.40;97.00
9984;DHT22;16737;50.932;6.780;2023-02-01T07:29:18;8.40;97.00
9984;DHT22;16737;50.932;6.780;2023-02-01T07:31:46;8.40;97.00
9984;DHT22;16737;50.932;6.780;2023-02-01T07:34:14;8.40;97.00
9984;DHT22;16737;50.932;6.780;2023-02-01T07:36:42;8.40;97.00
9984;DHT22;16737;50.932;6.780;2023-02-01T07:39:09;8.40;97.00
9984;DHT22;16737;50.932;6.780;2023-02-01T07:41:36;8.40;97.00
9984;DHT22;16737;50.932;6.780;2023-02-01T07:44:03;8.40;97.00
9984;DHT22;16737;50.932;6.780;2023-02-01T07:46:30;8.40;97.00
9984;DHT22;16737;50.932;6.780;2023-02-01T07:48:57;8.40;97.00
9984;DHT22;16737;50.932;6.780;2023-02-01T07:51:25;8.40;97.00
9984;DHT22;16737;50.932;6.780;2023-02-01T07:53:53;8.40;97.00
9984;DHT22;16737;50.932;6.780;2023-02-01T07:56:20;8.40;97.00
9984;DHT22;16737;50.932;6.780;2023-02-01T07:58:49;8.40;97.00
9984;DHT22;16737;50.932;6.780;2023-02-01T08:01:21;8.40;97.00
9984;DHT22;16737;50.932;6.780;2023-02-01T08:03:51;8.40;97.00
9984;DHT22;16737;50.932;6.780;2023-02-01T08:06:20;8.40;97.00
9984;DHT22;16737;50.932;6.780;2023-02-01T08:08:49;8.40;97.00
9984;DHT22;16737;50.932;6.780;2023-02-01T08:11:19;8.40;97.00
9984;DHT22;16737;50.932;6.780;2023-02-01T08:13:46;8.40;97.00
9984;DHT22;16737;50.932;6.780;2023-02-01T08:16:15;8.40;97.00
9984;DHT22;16737;50.932;6.780;2023-02-01T08:18:44;8.40;97.00
9984;DHT22;16737;50.932;6.780;2023-02-01T08:21:15;8.40;97.00
9984;DHT22;16737;50.932;6.780;2023-02-01T08:23:44;8.40;97.00
9984;DHT22;16737;50.932;6.780;2023-02-01T08:26:13;8.50;97.00
9984;DHT22;16737;50.932;6.780;2023-02-01T08:28:44;8.50;97.00
9984;DHT22;16737;50.932;6.780;2023-02-01T08:31:14;8.50;97.00
9984;DHT22;16737;50.932;6.780;2023-02-01T08:33:44;8.50;97.00
9984;DHT22;16737;50.932;6.780;2023-02-01T08:36:15;8.50;97.00
9984;DHT22;16737;50.932;6.780;2023-02-01T08:38:42;8.50;97.00
9984;DHT22;16737;50.932;6.780;2023-02-01T08:41:11;8.50;97.00
9984;DHT22;16737;50.932;6.780;2023-02-01T08:43:40;8.50;97.10
9984;DHT22;16737;50.932;6.780;2023-02-01T08:46:09;8.50;97.10
9984;DHT22;16737;50.932;6.780;2023-02-01T08:48:37;8.50;97.10
9984;DHT22;16737;50.932;6.780;2023-02-01T08:51:06;8.50;97.10
9984;DHT22;16737;50.932;6.780;2023-02-01T08:53:35;8.50;97.10
9984;DHT22;16737;50.932;6.780;2023-02-01T08:56:03;8.60;97.20
9984;DHT22;16737;50.932;6.780;2023-02-01T08:58:30;8.60;97.20
9984;DHT22;16737;50.932;6.780;2023-02-01T09:01:03;8.60;97.10
9984;DHT22;16737;50.932;6.780;2023-02-01T09:03:31;8.70;97.10
9984;DHT22;16737;50.932;6.780;2023-02-01T09:06:02;8.70;97.20
9984;DHT22;16737;50.932;6.780;2023-02-01T09:08:31;8.70;97.10
9984;DHT22;16737;50.932;6.780;2023-02-01T09:10:59;8.70;97.20
9984;DHT22;16737;50.932;6.780;2023-02-01T09:13:26;8.70;97.20
9984;DHT22;16737;50.932;6.780;2023-02-01T09:15:54;8.80;97.30
9984;DHT22;16737;50.932;6.780;2023-02-01T09:18:22;8.80;97.60
9984;DHT22;16737;50.932;6.780;2023-02-01T09:20:49;8.90;97.20
9984;DHT22;16737;50.932;6.780;2023-02-01T09:23:16;8.90;97.20
9984;DHT22;16737;50.932;6.780;2023-02-01T09:25:43;9.00;97.20
9984;DHT22;16737;50.932;6.780;2023-02-01T09:28:12;9.00;97.20
9984;DHT22;16737;50.932;6.780;2023-02-01T09:30:39;9.10;97.20
9984;DHT22;16737;50.932;6.780;2023-02-01T09:33:08;9.10;97.10
9984;DHT22;16737;50.932;6.780;2023-02-01T09:35:37;9.10;97.10
9984;DHT22;16737;50.932;6.780;2023-02-01T09:38:04;9.10;97.00
9984;DHT22;16737;50.932;6.780;2023-02-01T09:40:33;9.20;97.10
9984;DHT22;16737;50.932;6.780;2023-02-01T09:43:11;9.20;97.00
9984;DHT22;16737;50.932;6.780;2023-02-01T09:45:54;9.20;97.00
9984;DHT22;16737;50.932;6.780;2023-02-01T09:48:30;9.20;97.00
9984;DHT22;16737;50.932;6.780;2023-02-01T09:51:06;9.30;97.00
9984;DHT22;16737;50.932;6.780;2023-02-01T09:53:42;9.30;97.00
9984;DHT22;16737;50.932;6.780;2023-02-01T09:56:15;9.30;97.00
9984;DHT22;16737;50.932;6.780;2023-02-01T09:58:52;9.30;97.00
9984;DHT22;16737;50.932;6.780;2023-02-01T10:01:26;9.30;96.90
9984;DHT22;16737;50.932;6.780;2023-02-01T10:04:01;9.30;96.90
9984;DHT22;16737;50.932;6.780;2023-02-01T10:06:40;9.40;96.90
9984;DHT22;16737;50.932;6.780;2023-02-01T10:09:24;9.40;96.80
9984;DHT22;16737;50.932;6.780;2023-02-01T10:12:29;9.40;96.90
9984;DHT22;16737;50.932;6.780;2023-02-01T10:15:28;9.40;96.90
9984;DHT22;16737;50.932;6.780;2023-02-01T10:18:14;9.50;96.90
9984;DHT22;16737;50.932;6.780;2023-02-01T10:21:07;9.50;96.90
9984;DHT22;16737;50.932;6.780;2023-02-01T10:24:17;9.60;97.20
9984;DHT22;16737;50.932;6.780;2023-02-01T10:27:00;9.60;97.00
9984;DHT22;16737;50.932;6.780;2023-02-01T10:29:34;9.70;97.20
9984;DHT22;16737;50.932;6.780;2023-02-01T10:32:11;9.80;97.20
9984;DHT22;16737;50.932;6.780;2023-02-01T10:34:41;9.80;97.10
9984;DHT22;16737;50.932;6.780;2023-02-01T10:37:20;9.90;97.20
9984;DHT22;16737;50.932;6.780;2023-02-01T10:39:56;9.90;96.90
9984;DHT22;16737;50.932;6.780;2023-02-01T10:42:28;10.00;96.50
9984;DHT22;16737;50.932;6.780;2023-02-01T10:44:59;10.10;96.50
9984;DHT22;16737;50.932;6.780;2023-02-01T10:47:28;10.10;96.40
9984;DHT22;16737;50.932;6.780;2023-02-01T10:50:04;10.20;96.50
9984;DHT22;16737;50.932;6.780;2023-02-01T10:52:45;10.20;96.30
9984;DHT22;16737;50.932;6.780;2023-02-01T10:55:38;10.30;96.50
9984;DHT22;16737;50.932;6.780;2023-02-01T10:58:14;10.40;96.40
9984;DHT22;16737;50.932;6.780;2023-02-01T11:00:46;10.40;96.50
9984;DHT22;16737;50.932;6.780;2023-02-01T11:03:33;10.50;96.50
9984;DHT22;16737;50.932;6.780;2023-02-01T11:06:10;10.60;96.20
9984;DHT22;16737;50.932;6.780;2023-02-01T11:08:47;10.60;96.20
9984;DHT22;16737;50.932;6.780;2023-02-01T11:11:18;10.70;96.10
9984;DHT22;16737;50.932;6.780;2023-02-01T11:13:52;10.70;96.10
9984;DHT22;16737;50.932;6.780;2023-02-01T11:16:21;10.70;95.90
9984;DHT22;16737;50.932;6.780;2023-02-01T11:18:58;10.70;95.80
9984;DHT22;16737;50.932;6.780;2023-02-01T11:21:26;10.60;95.60
9984;DHT22;16737;50.932;6.780;2023-02-01T11:23:54;10.60;95.60
9984;DHT22;16737;50.932;6.780;2023-02-01T11:26:25;10.60;95.60
9984;DHT22;16737;50.932;6.780;2023-02-01T11:28:57;10.50;95.50
9984;DHT22;16737;50.932;6.780;2023-02-01T11:31:27;10.50;95.60
9984;DHT22;16737;50.932;6.780;2023-02-01T11:33:59;10.50;95.60
9984;DHT22;16737;50.932;6.780;2023-02-01T11:36:34;10.50;95.60
9984;DHT22;16737;50.932;6.780;2023-02-01T11:39:17;10.50;95.60
9984;DHT22;16737;50.932;6.780;2023-02-01T11:42:00;10.50;95.50
9984;DHT22;16737;50.932;6.780;2023-02-01T11:44:35;10.50;95.40
9984;DHT22;16737;50.932;6.780;2023-02-01T11:47:19;10.40;95.40
9984;DHT22;16737;50.932;6.780;2023-02-01T11:49:53;10.40;95.30
9984;DHT22;16737;50.932;6.780;2023-02-01T11:52:36;10.40;95.50
9984;DHT22;16737;50.932;6.780;2023-02-01T11:55:24;10.40;95.40
9984;DHT22;16737;50.932;6.780;2023-02-01T11:58:28;10.40;95.30
9984;DHT22;16737;50.932;6.780;2023-02-01T12:01:29;10.40;95.30
9984;DHT22;16737;50.932;6.780;2023-02-01T12:04:31;10.40;95.20
9984;DHT22;16737;50.932;6.780;2023-02-01T12:07:28;10.40;95.20
9984;DHT22;16737;50.932;6.780;2023-02-01T12:10:17;10.40;95.30
9984;DHT22;16737;50.932;6.780;2023-02-01T12:13:02;10.40;95.20
9984;DHT22;16737;50.932;6.780;2023-02-01T12:15:50;10.40;95.60
9984;DHT22;16737;50.932;6.780;2023-02-01T12:18:41;10.40;95.30
9984;DHT22;16737;50.932;6.780;2023-02-01T12:21:45;10.30;95.20
9984;DHT22;16737;50.932;6.780;2023-02-01T12:24:55;10.30;95.10
9984;DHT22;16737;50.932;6.780;2023-02-01T12:27:48;10.30;95.10
9984;DHT22;16737;50.932;6.780;2023-02-01T12:30:56;10.30;95.20
9984;DHT22;16737;50.932;6.780;2023-02-01T12:33:51;10.40;95.20
9984;DHT22;16737;50.932;6.780;2023-02-01T12:36:38;10.40;95.30
9984;DHT22;16737;50.932;6.780;2023-02-01T12:39:21;10.40;95.30
9984;DHT22;16737;50.932;6.780;2023-02-01T12:41:57;10.40;95.30
9984;DHT22;16737;50.932;6.780;2023-02-01T12:44:35;10.30;95.10
9984;DHT22;16737;50.932;6.780;2023-02-01T12:47:15;10.40;95.30
9984;DHT22;16737;50.932;6.780;2023-02-01T12:49:53;10.40;95.30
9984;DHT22;16737;50.932;6.780;2023-02-01T12:52:30;10.50;95.30
9984;DHT22;16737;50.932;6.780;2023-02-01T12:55:10;10.50;95.30
9984;DHT22;16737;50.932;6.780;2023-02-01T12:57:48;10.50;95.20
9984;DHT22;16737;50.932;6.780;2023-02-01T13:00:25;10.50;95.20
9984;DHT22;16737;50.932;6.780;2023-02-01T13:03:05;10.50;95.20
9984;DHT22;16737;50.932;6.780;2023-02-01T13:05:44;10.50;95.00
9984;DHT22;16737;50.932;6.780;2023-02-01T13:08:20;10.50;95.00
9984;DHT22;16737;50.932;6.780;2023-02-01T13:11:03;10.50;95.00
9984;DHT22;16737;50.932;6.780;2023-02-01T13:13:44;10.50;94.90
9984;DHT22;16737;50.932;6.780;2023-02-01T13:16:18;10.50;94.90
9984;DHT22;16737;50.932;6.780;2023-02-01T13:19:10;10.50;95.00
9984;DHT22;16737;50.932;6.780;2023-02-01T13:21:45;10.50;94.90
9984;DHT22;16737;50.932;6.780;2023-02-01T13:24:27;10.50;95.10
9984;DHT22;16737;50.932;6.780;2023-02-01T13:27:00;10.50;95.00
9984;DHT22;16737;50.932;6.780;2023-02-01T13:29:28;10.50;95.10
9984;DHT22;16737;50.932;6.780;2023-02-01T13:32:15;10.50;95.10
9984;DHT22;16737;50.932;6.780;2023-02-01T13:38:07;10.50;95.10
9984;DHT22;16737;50.932;6.780;2023-02-01T13:41:11;10.50;95.00
9984;DHT22;16737;50.932;6.780;2023-02-01T13:43:54;10.50;95.00
9984;DHT22;16737;50.932;6.780;2023-02-01T13:46:23;10.50;95.10
9984;DHT22;16737;50.932;6.780;2023-02-01T13:48:53;10.50;95.10
9984;DHT22;16737;50.932;6.780;2023-02-01T13:51:35;10.50;95.20
9984;DHT22;16737;50.932;6.780;2023-02-01T13:54:04;10.50;95.10
9984;DHT22;16737;50.932;6.780;2023-02-01T13:56:40;10.50;95.20
9984;DHT22;16737;50.932;6.780;2023-02-01T13:59:48;10.50;95.00
9984;DHT22;16737;50.932;6.780;2023-02-01T14:02:48;10.50;95.00
9984;DHT22;16737;50.932;6.780;2023-02-01T14:09:19;10.40;95.00
9984;DHT22;16737;50.932;6.780;2023-02-01T14:11:58;10.50;95.00
9984;DHT22;16737;50.932;6.780;2023-02-01T14:15:22;10.50;95.20
9984;DHT22;16737;50.932;6.780;2023-02-01T14:17:51;10.50;95.00
9984;DHT22;16737;50.932;6.780;2023-02-01T14:20:46;10.40;95.10
9984;DHT22;16737;50.932;6.780;2023-02-01T14:23:29;10.50;94.90
9984;DHT22;16737;50.932;6.780;2023-02-01T14:26:17;10.50;95.00
9984;DHT22;16737;50.932;6.780;2023-02-01T14:28:51;10.50;94.90
9984;DHT22;16737;50.932;6.780;2023-02-01T14:31:42;10.50;95.00
9984;DHT22;16737;50.932;6.780;2023-02-01T14:34:24;10.50;94.80
9984;DHT22;16737;50.932;6.780;2023-02-01T14:36:59;10.60;95.10
9984;DHT22;16737;50.932;6.780;2023-02-01T14:39:34;10.60;95.00
9984;DHT22;16737;50.932;6.780;2023-02-01T14:42:20;10.60;94.90
9984;DHT22;16737;50.932;6.780;2023-02-01T14:44:51;10.70;94.90
9984;DHT22;16737;50.932;6.780;2023-02-01T14:47:34;10.60;95.00
9984;DHT22;16737;50.932;6.780;2023-02-01T14:50:27;10.70;94.80
9984;DHT22;16737;50.932;6.780;2023-02-01T14:53:14;10.70;94.70
9984;DHT22;16737;50.932;6.780;2023-02-01T14:55:50;10.70;94.80
9984;DHT22;16737;50.932;6.780;2023-02-01T14:58:32;10.70;94.80
9984;DHT22;16737;50.932;6.780;2023-02-01T15:01:05;10.80;94.70
9984;DHT22;16737;50.932;6.780;2023-02-01T15:03:56;10.80;94.80
9984;DHT22;16737;50.932;6.780;2023-02-01T15:06:36;10.80;94.60
9984;DHT22;16737;50.932;6.780;2023-02-01T15:09:11;10.80;94.60
9984;DHT22;16737;50.932;6.780;2023-02-01T15:11:55;10.80;94.60
9984;DHT22;16737;50.932;6.780;2023-02-01T15:14:25;10.90;94.40
9984;DHT22;16737;50.932;6.780;2023-02-01T15:16:53;10.90;94.70
9984;DHT22;16737;50.932;6.780;2023-02-01T15:19:21;10.90;94.60
9984;DHT22;16737;50.932;6.780;2023-02-01T15:21:52;10.90;94.60
9984;DHT22;16737;50.932;6.780;2023-02-01T15:24:22;10.90;94.60
9984;DHT22;16737;50.932;6.780;2023-02-01T15:26:52;10.90;94.50
9984;DHT22;16737;50.932;6.780;2023-02-01T15:29:21;10.90;94.50
9984;DHT22;16737;50.932;6.780;2023-02-01T15:31:53;10.90;94.50
9984;DHT22;16737;50.932;6.780;2023-02-01T15:34:21;11.00;94.40
9984;DHT22;16737;50.932;6.780;2023-02-01T15:36:48;11.00;94.50
9984;DHT22;16737;50.932;6.780;2023-02-01T15:39:24;11.00;94.40
9984;DHT22;16737;50.932;6.780;2023-02-01T15:41:54;11.00;94.30
9984;DHT22;16737;50.932;6.780;2023-02-01T15:44:33;11.00;94.40
9984;DHT22;16737;50.932;6.780;2023-02-01T15:47:12;11.00;94.20
9984;DHT22;16737;50.932;6.780;2023-02-01T15:49:43;11.00;94.30
9984;DHT22;16737;50.932;6.780;2023-02-01T15:52:23;11.00;94.30
9984;DHT22;16737;50.932;6.780;2023-02-01T15:54:54;11.00;94.10
9984;DHT22;16737;50.932;6.780;2023-02-01T15:57:30;11.00;94.30
9984;DHT22;16737;50.932;6.780;2023-02-01T16:00:01;11.00;94.20
9984;DHT22;16737;50.932;6.780;2023-02-01T16:02:36;11.00;94.30
9984;DHT22;16737;50.932;6.780;2023-02-01T16:05:32;11.00;94.20
9984;DHT22;16737;50.932;6.780;2023-02-01T16:08:10;11.00;94.10
9984;DHT22;16737;50.932;6.780;2023-02-01T16:10:42;11.00;94.20
9984;DHT22;16737;50.932;6.780;2023-02-01T16:13:11;11.00;94.30
9984;DHT22;16737;50.932;6.780;2023-02-01T16:15:39;10.90;94.30
9984;DHT22;16737;50.932;6.780;2023-02-01T16:18:08;10.90;94.30
9984;DHT22;16737;50.932;6.780;2023-02-01T16:20:36;10.90;94.30
9984;DHT22;16737;50.932;6.780;2023-02-01T16:23:06;10.80;94.30
9984;DHT22;16737;50.932;6.780;2023-02-01T16:25:34;10.80;94.40
9984;DHT22;16737;50.932;6.780;2023-02-01T16:28:02;10.70;94.40
9984;DHT22;16737;50.932;6.780;2023-02-01T16:30:30;10.70;94.50
9984;DHT22;16737;50.932;6.780;2023-02-01T16:32:59;10.60;94.50
9984;DHT22;16737;50.932;6.780;2023-02-01T16:35:31;10.60;94.60
9984;DHT22;16737;50.932;6.780;2023-02-01T16:38:01;10.50;94.60
9984;DHT22;16737;50.932;6.780;2023-02-01T16:40:33;10.50;94.70
9984;DHT22;16737;50.932;6.780;2023-02-01T16:43:04;10.40;94.80
9984;DHT22;16737;50.932;6.780;2023-02-01T16:45:37;10.40;94.80
9984;DHT22;16737;50.932;6.780;2023-02-01T16:48:06;10.30;94.80
9984;DHT22;16737;50.932;6.780;2023-02-01T16:50:34;10.30;94.90
9984;DHT22;16737;50.932;6.780;2023-02-01T16:53:01;10.30;95.00
9984;DHT22;16737;50.932;6.780;2023-02-01T16:55:30;10.20;95.00